Time;durP1;ratioP1;P1;durP2;ratioP2;P2;SDS_P1;SDS_P2;PMS_P1;PMS_P2;Temp;Humidity;BMP_temperature;BMP_pressure;BME280_temperature;BME280_humidity;BME280_pressure;Samples;Min_cycle;Max_cycle;Signal;HPM_P1;HPM_P2
2021/11/09 00:00:40;;;;;;;19.30;6.28;;;8.20;99.90;;;;;;5060642;28;20052;-81
2021/11/09 00:03:09;;;;;;;21.60;6.00;;;8.20;99.90;;;;;;5059052;28;20040;-81
2021/11/09 00:06:23;;;;;;;16.92;5.85;;;8.20;99.90;;;;;;5058995;28;20065;-81
2021/11/09 00:08:35;;;;;;;14.82;5.90;;;8.20;99.90;;;;;;5056196;28;20056;-81
2021/11/09 00:11:00;;;;;;;15.15;5.25;;;8.20;99.90;;;;;;5060469;28;20040;-81
2021/11/09 00:13:26;;;;;;;21.27;6.18;;;8.20;99.90;;;;;;5059189;28;20045;-81
2021/11/09 00:15:52;;;;;;;14.93;6.75;;;8.20;99.90;;;;;;5060329;28;20102;-81
2021/11/09 00:18:18;;;;;;;13.48;4.72;;;8.20;99.90;;;;;;5059375;28;20090;-81
2021/11/09 00:20:44;;;;;;;16.00;5.22;;;8.10;99.90;;;;;;5061259;28;20490;-81
2021/11/09 00:23:11;;;;;;;18.73;6.50;;;8.10;99.90;;;;;;5061978;28;20035;-81
2021/11/09 00:25:39;;;;;;;25.13;6.03;;;8.00;99.90;;;;;;5058841;28;20064;-82
2021/11/09 00:28:07;;;;;;;14.60;5.43;;;8.00;99.90;;;;;;5056253;28;20052;-81
2021/11/09 00:30:33;;;;;;;22.95;6.97;;;8.00;99.90;;;;;;5061404;28;20102;-80
2021/11/09 00:33:00;;;;;;;22.20;6.45;;;8.00;99.90;;;;;;5093337;27;20155;-81
2021/11/09 00:35:29;;;;;;;24.17;7.10;;;7.90;99.90;;;;;;5064190;28;20163;-81
2021/11/09 00:38:00;;;;;;;21.38;5.97;;;7.90;99.90;;;;;;5069325;28;20028;-80
2021/11/09 00:40:29;;;;;;;17.45;6.90;;;7.90;99.90;;;;;;5064362;28;20097;-80
2021/11/09 00:42:55;;;;;;;26.40;9.25;;;7.90;99.90;;;;;;5066712;28;20048;-80
2021/11/09 00:45:21;;;;;;;26.92;8.40;;;7.90;99.90;;;;;;5073945;28;20036;-80
2021/11/09 00:47:47;;;;;;;21.60;7.25;;;7.90;99.90;;;;;;5067216;28;20043;-81
2021/11/09 00:50:16;;;;;;;11.13;5.18;;;7.80;99.90;;;;;;5063159;28;20048;-81
2021/11/09 00:52:43;;;;;;;17.73;5.63;;;7.80;99.90;;;;;;5059007;28;20055;-81
2021/11/09 00:55:09;;;;;;;16.52;6.07;;;7.70;99.90;;;;;;5061823;28;20501;-81
2021/11/09 00:57:35;;;;;;;18.58;6.75;;;7.70;99.90;;;;;;5056859;28;20048;-80
2021/11/09 01:00:01;;;;;;;12.32;5.28;;;7.70;99.90;;;;;;5061579;28;20501;-81
2021/11/09 01:02:27;;;;;;;17.95;5.53;;;7.60;99.90;;;;;;5058515;28;20080;-81
2021/11/09 01:04:53;;;;;;;16.20;5.80;;;7.60;99.90;;;;;;5058893;28;20140;-80
2021/11/09 01:07:19;;;;;;;13.50;4.47;;;7.50;99.90;;;;;;5057628;28;20039;-81
2021/11/09 01:09:44;;;;;;;19.88;7.45;;;7.40;99.90;;;;;;5059496;28;20123;-81
2021/11/09 01:12:10;;;;;;;19.92;7.05;;;7.40;99.90;;;;;;5057558;28;20044;-81
2021/11/09 01:14:37;;;;;;;24.02;7.32;;;7.50;99.90;;;;;;5092003;27;20043;-80
2021/11/09 01:17:04;;;;;;;19.95;7.22;;;7.40;99.90;;;;;;5073677;28;20076;-81
2021/11/09 01:19:32;;;;;;;26.45;6.70;;;7.30;99.90;;;;;;5059039;28;20049;-81
2021/11/09 01:21:59;;;;;;;15.50;5.45;;;7.30;99.90;;;;;;5089678;28;20059;-82
2021/11/09 01:24:26;;;;;;;16.83;5.05;;;7.30;99.90;;;;;;5060080;28;20032;-81
2021/11/09 01:26:51;;;;;;;26.33;8.43;;;7.30;99.90;;;;;;5058549;28;20386;-81
2021/11/09 01:29:18;;;;;;;17.95;7.75;;;7.20;99.90;;;;;;5057483;28;20057;-81
2021/11/09 01:31:45;;;;;;;21.92;8.20;;;7.20;99.90;;;;;;5061145;28;20533;-81
2021/11/09 01:34:11;;;;;;;18.95;8.32;;;7.30;99.90;;;;;;5060352;28;20489;-81
2021/11/09 01:36:37;;;;;;;26.48;9.38;;;7.20;99.90;;;;;;5054400;28;20044;-82
2021/11/09 01:39:06;;;;;;;23.10;8.70;;;7.20;99.90;;;;;;5059061;28;20032;-81
2021/11/09 01:41:33;;;;;;;24.50;8.98;;;7.20;99.90;;;;;;5057396;28;20036;-81
2021/11/09 01:43:59;;;;;;;24.95;9.15;;;7.20;99.90;;;;;;5058706;28;20045;-81
2021/11/09 01:46:26;;;;;;;24.88;9.70;;;7.20;99.90;;;;;;5059360;28;20610;-81
2021/11/09 01:48:51;;;;;;;25.65;10.50;;;7.20;99.90;;;;;;5056125;28;20525;-81
2021/11/09 01:51:19;;;;;;;24.13;9.70;;;7.20;99.90;;;;;;5059510;28;20046;-81
2021/11/09 01:53:49;;;;;;;27.02;10.05;;;7.20;99.90;;;;;;5037350;28;20048;-81
2021/11/09 01:56:17;;;;;;;21.35;8.00;;;7.20;99.90;;;;;;5059847;28;20053;-81
2021/11/09 01:58:44;;;;;;;33.88;10.15;;;7.10;99.90;;;;;;5057346;28;20075;-81
2021/11/09 02:01:15;;;;;;;32.58;10.70;;;7.10;99.90;;;;;;5059104;28;20124;-81
2021/11/09 02:03:44;;;;;;;25.17;9.57;;;7.10;99.90;;;;;;5064277;28;20037;-81
2021/11/09 02:06:11;;;;;;;24.45;10.57;;;7.10;99.90;;;;;;5057356;28;20037;-81
2021/11/09 02:08:37;;;;;;;29.85;10.05;;;7.10;99.90;;;;;;5059384;28;20517;-81
2021/11/09 02:11:03;;;;;;;28.42;10.60;;;7.10;99.90;;;;;;5059439;28;20390;-81
2021/11/09 02:13:29;;;;;;;22.15;9.85;;;7.00;99.90;;;;;;5059789;28;20082;-82
2021/11/09 02:15:55;;;;;;;31.55;9.63;;;7.10;99.90;;;;;;5059271;28;20558;-82
2021/11/09 02:18:22;;;;;;;28.83;9.70;;;7.00;99.90;;;;;;5055150;28;20063;-82
2021/11/09 02:20:49;;;;;;;27.73;10.18;;;7.00;99.90;;;;;;5060379;28;20483;-82
2021/11/09 02:23:15;;;;;;;24.85;10.32;;;7.00;99.90;;;;;;5090646;28;20996;-81
2021/11/09 02:25:41;;;;;;;29.88;9.88;;;7.00;99.90;;;;;;5064647;28;20040;-81
2021/11/09 02:28:07;;;;;;;22.92;9.20;;;7.00;99.90;;;;;;5060187;28;20067;-81
2021/11/09 02:30:33;;;;;;;32.88;10.32;;;6.90;99.90;;;;;;5060570;28;20075;-81
2021/11/09 02:33:00;;;;;;;25.08;10.68;;;7.00;99.90;;;;;;5060646;28;20086;-82
2021/11/09 02:35:26;;;;;;;24.83;8.18;;;7.00;99.90;;;;;;5060324;28;21803;-81
2021/11/09 02:37:54;;;;;;;33.17;9.18;;;6.90;99.90;;;;;;5061517;28;20536;-81
2021/11/09 02:40:21;;;;;;;21.98;8.02;;;6.90;99.90;;;;;;5064143;28;20037;-81
2021/11/09 02:42:51;;;;;;;25.75;7.57;;;6.90;99.90;;;;;;5065429;28;20082;-81
2021/11/09 02:45:23;;;;;;;31.48;9.25;;;6.90;99.90;;;;;;5064317;28;20135;-81
2021/11/09 02:48:01;;;;;;;22.90;7.57;;;7.00;99.90;;;;;;5093550;28;20051;-81
2021/11/09 02:50:33;;;;;;;23.42;8.32;;;6.90;99.90;;;;;;5060135;28;20056;-81
2021/11/09 02:53:09;;;;;;;28.13;8.05;;;6.90;99.90;;;;;;5065008;28;20051;-81
2021/11/09 02:55:41;;;;;;;28.17;8.73;;;6.90;99.90;;;;;;5063895;28;20094;-82
2021/11/09 02:58:16;;;;;;;24.83;8.80;;;6.90;99.90;;;;;;5065795;28;20049;-81
2021/11/09 03:00:57;;;;;;;21.13;8.23;;;6.90;99.90;;;;;;5066948;28;20071;-81
2021/11/09 03:03:34;;;;;;;24.90;9.18;;;6.80;99.90;;;;;;5068890;28;20036;-80
2021/11/09 03:08:38;;;;;;;29.67;8.60;;;6.80;99.90;;;;;;5065889;28;20083;-81
2021/11/09 03:11:04;;;;;;;32.95;9.60;;;6.80;99.90;;;;;;5071601;28;20092;-81
2021/11/09 03:13:30;;;;;;;33.25;9.63;;;6.80;99.90;;;;;;5063793;28;20168;-81
2021/11/09 03:16:01;;;;;;;25.23;9.20;;;6.70;99.90;;;;;;5062289;28;20106;-81
2021/11/09 03:18:29;;;;;;;26.02;8.77;;;6.80;99.90;;;;;;5061631;28;20135;-81
2021/11/09 03:23:06;;;;;;;26.02;9.45;;;6.70;99.90;;;;;;5064841;28;20474;-81
2021/11/09 03:40:30;;;;;;;27.77;8.63;;;6.60;99.90;;;;;;5064997;28;20040;-81
2021/11/09 03:45:41;;;;;;;24.73;8.18;;;6.50;99.90;;;;;;5062872;28;20048;-81
2021/11/09 03:48:10;;;;;;;22.15;7.82;;;6.50;99.90;;;;;;5061839;28;20087;-81
2021/11/09 03:50:39;;;;;;;26.90;7.82;;;6.60;99.90;;;;;;5064319;28;20033;-82
2021/11/09 03:53:25;;;;;;;27.40;9.07;;;6.50;99.90;;;;;;5096169;28;20029;-81
2021/11/09 04:00:54;;;;;;;29.65;9.00;;;6.40;99.90;;;;;;5064073;28;20059;-81
2021/11/09 04:05:54;;;;;;;34.92;8.65;;;6.40;99.90;;;;;;5095959;28;20044;-81
2021/11/09 04:13:45;;;;;;;28.88;9.15;;;6.30;99.90;;;;;;5063701;28;20478;-82
2021/11/09 04:19:20;;;;;;;29.63;8.45;;;6.30;99.90;;;;;;5063162;28;20056;-81
2021/11/09 04:24:56;;;;;;;26.88;10.45;;;6.30;99.90;;;;;;5059570;28;20044;-82
2021/11/09 04:27:29;;;;;;;27.02;8.85;;;6.30;99.90;;;;;;5092422;28;20072;-81
2021/11/09 04:32:35;;;;;;;24.15;9.70;;;6.20;99.90;;;;;;5061310;28;20044;-81
2021/11/09 04:46:40;;;;;;;42.03;10.90;;;6.20;99.90;;;;;;5065020;28;20131;-82
2021/11/09 05:02:02;;;;;;;39.90;11.48;;;6.20;99.90;;;;;;5063678;28;20076;-82
2021/11/09 05:09:54;;;;;;;37.88;10.35;;;6.20;99.90;;;;;;5063076;28;20131;-79
2021/11/09 05:12:20;;;;;;;36.35;12.63;;;6.10;99.90;;;;;;5062885;28;20714;-79
2021/11/09 05:14:45;;;;;;;35.20;11.18;;;6.10;99.90;;;;;;5047972;28;20131;-79
2021/11/09 05:17:11;;;;;;;28.48;11.13;;;6.10;99.90;;;;;;5056689;28;20754;-77
2021/11/09 05:19:37;;;;;;;35.95;11.23;;;6.10;99.90;;;;;;5061724;28;20025;-78
2021/11/09 05:22:03;;;;;;;32.42;11.05;;;6.10;99.90;;;;;;5061085;28;20094;-77
2021/11/09 05:24:29;;;;;;;37.33;11.05;;;6.10;99.90;;;;;;5061117;28;20049;-78
2021/11/09 05:26:55;;;;;;;32.78;10.98;;;6.00;99.90;;;;;;5062397;28;20043;-78
2021/11/09 05:29:21;;;;;;;38.40;12.85;;;6.00;99.90;;;;;;5094868;28;20045;-80
2021/11/09 05:31:47;;;;;;;36.63;10.52;;;6.00;99.90;;;;;;5098473;28;20571;-83
2021/11/09 05:34:12;;;;;;;28.58;10.50;;;6.00;99.90;;;;;;5068452;28;20058;-82
2021/11/09 05:36:41;;;;;;;37.22;12.20;;;6.00;99.90;;;;;;5074146;28;20053;-81
2021/11/09 05:39:20;;;;;;;31.33;12.73;;;6.00;99.90;;;;;;5063570;28;20044;-81
2021/11/09 05:41:50;;;;;;;34.78;13.73;;;6.00;99.90;;;;;;5062563;28;20072;-81
2021/11/09 05:44:15;;;;;;;40.45;12.55;;;5.90;99.90;;;;;;5061975;28;20175;-82
2021/11/09 05:46:41;;;;;;;32.78;12.85;;;5.90;99.90;;;;;;5057793;28;20120;-82
2021/11/09 05:49:07;;;;;;;34.97;12.68;;;5.90;99.90;;;;;;5058440;28;20147;-82
2021/11/09 05:51:34;;;;;;;37.28;13.80;;;5.90;99.90;;;;;;5061121;28;20095;-82
2021/11/09 05:54:00;;;;;;;28.33;13.35;;;5.90;99.90;;;;;;5059072;28;20037;-82
2021/11/09 05:56:27;;;;;;;32.67;14.57;;;5.90;99.90;;;;;;5060002;28;20674;-82
2021/11/09 05:58:52;;;;;;;38.55;12.85;;;5.90;99.90;;;;;;5061084;28;20025;-82
2021/11/09 06:01:18;;;;;;;33.25;14.05;;;5.90;99.90;;;;;;5059552;28;20109;-82
2021/11/09 06:03:44;;;;;;;33.63;13.90;;;5.90;99.90;;;;;;5059389;28;20128;-82
2021/11/09 06:06:10;;;;;;;39.08;13.95;;;5.90;99.90;;;;;;5060585;28;20278;-82
2021/11/09 06:08:36;;;;;;;37.58;13.80;;;5.90;99.90;;;;;;5062110;28;20052;-82
2021/11/09 06:11:02;;;;;;;38.58;14.27;;;5.80;99.90;;;;;;5056387;28;20072;-82
2021/11/09 06:13:28;;;;;;;38.70;15.00;;;5.90;99.90;;;;;;5058869;28;20044;-82
2021/11/09 06:15:53;;;;;;;37.65;14.35;;;5.80;99.90;;;;;;5063580;28;20677;-82
2021/11/09 06:18:19;;;;;;;37.83;13.93;;;5.90;99.90;;;;;;5060682;28;20032;-82
2021/11/09 06:20:45;;;;;;;37.75;13.85;;;5.80;99.90;;;;;;5061833;28;20045;-82
2021/11/09 06:23:11;;;;;;;37.13;14.65;;;5.80;99.90;;;;;;5061974;28;20040;-82
2021/11/09 06:25:38;;;;;;;43.35;14.60;;;5.80;99.90;;;;;;5063022;28;20041;-82
2021/11/09 06:28:05;;;;;;;34.53;12.38;;;5.80;99.90;;;;;;5061924;28;20052;-82
2021/11/09 06:30:32;;;;;;;33.10;13.98;;;5.80;99.90;;;;;;5060658;28;20049;-82
2021/11/09 06:32:58;;;;;;;33.95;14.70;;;5.80;99.90;;;;;;5062294;28;20048;-82
2021/11/09 06:35:23;;;;;;;39.65;14.40;;;5.80;99.90;;;;;;5047590;28;20893;-82
2021/11/09 06:37:49;;;;;;;35.00;14.45;;;5.80;99.90;;;;;;5061316;28;20125;-82
2021/11/09 06:40:15;;;;;;;35.90;14.43;;;5.80;99.90;;;;;;5063852;28;20041;-82
2021/11/09 06:42:41;;;;;;;35.67;14.63;;;5.80;99.90;;;;;;5062628;28;20037;-81
2021/11/09 06:45:07;;;;;;;37.60;14.43;;;5.70;99.90;;;;;;5060787;28;20043;-82
2021/11/09 06:47:33;;;;;;;39.78;14.93;;;5.80;99.90;;;;;;5059722;28;20040;-82
2021/11/09 06:49:59;;;;;;;35.78;13.80;;;5.70;99.90;;;;;;5065595;28;20054;-82
2021/11/09 06:52:25;;;;;;;37.97;14.95;;;5.80;99.90;;;;;;5061770;28;20044;-82
2021/11/09 06:54:50;;;;;;;29.35;13.20;;;5.70;99.90;;;;;;5064268;28;20040;-81
2021/11/09 06:57:16;;;;;;;28.92;12.70;;;5.70;99.90;;;;;;5059213;28;20095;-78
2021/11/09 06:59:42;;;;;;;29.27;12.80;;;5.70;99.90;;;;;;5060266;28;20043;-78
2021/11/09 07:02:08;;;;;;;28.80;13.52;;;5.70;99.90;;;;;;5061492;28;20044;-77
2021/11/09 07:04:34;;;;;;;33.58;12.90;;;5.80;99.90;;;;;;5062483;28;20093;-78
2021/11/09 07:07:00;;;;;;;41.05;14.63;;;5.70;99.90;;;;;;5058526;28;20044;-78
2021/11/09 07:09:26;;;;;;;35.67;12.75;;;5.80;99.90;;;;;;5096703;28;20045;-78
2021/11/09 07:11:52;;;;;;;32.95;13.13;;;5.80;99.90;;;;;;5059389;28;20048;-78
2021/11/09 07:14:19;;;;;;;30.60;12.52;;;5.80;99.90;;;;;;5063378;28;20047;-78
2021/11/09 07:16:45;;;;;;;29.75;12.38;;;5.80;99.90;;;;;;5058784;28;20090;-78
2021/11/09 07:19:12;;;;;;;30.48;11.70;;;5.80;99.90;;;;;;5058527;28;20437;-78
2021/11/09 07:21:38;;;;;;;32.78;12.90;;;5.90;99.90;;;;;;5062045;28;20033;-78
2021/11/09 07:24:04;;;;;;;29.20;11.52;;;5.90;99.90;;;;;;5063390;28;20460;-76
2021/11/09 07:26:30;;;;;;;28.38;11.65;;;6.00;99.90;;;;;;5089768;28;20182;-76
2021/11/09 07:28:57;;;;;;;25.30;11.65;;;6.00;99.90;;;;;;5055925;28;20093;-76
2021/11/09 07:31:28;;;;;;;33.65;11.70;;;6.00;99.90;;;;;;5059688;28;20391;-76
2021/11/09 07:33:53;;;;;;;32.08;11.05;;;6.10;99.90;;;;;;5061346;28;20041;-76
2021/11/09 07:36:19;;;;;;;26.83;10.70;;;6.10;99.90;;;;;;5060765;28;20083;-76
2021/11/09 07:38:45;;;;;;;36.58;11.93;;;6.20;99.90;;;;;;5060763;28;20036;-76
2021/11/09 07:41:11;;;;;;;34.63;12.20;;;6.20;99.90;;;;;;5060334;28;20037;-76
2021/11/09 07:43:37;;;;;;;35.88;12.75;;;6.30;99.90;;;;;;5056864;28;20120;-76
2021/11/09 07:46:03;;;;;;;31.38;11.52;;;6.30;99.90;;;;;;5057962;28;20072;-76
2021/11/09 07:48:29;;;;;;;37.63;12.40;;;6.30;99.90;;;;;;5059639;28;20175;-76
2021/11/09 07:50:55;;;;;;;31.48;12.00;;;6.40;99.90;;;;;;5059926;28;20538;-76
2021/11/09 07:53:22;;;;;;;30.98;10.10;;;6.40;99.90;;;;;;5058358;28;20033;-77
2021/11/09 07:58:52;;;;;;;29.95;12.25;;;6.60;99.90;;;;;;5057317;28;20492;-77
2021/11/09 08:01:21;;;;;;;28.30;12.95;;;6.60;99.90;;;;;;5076606;28;20044;-76
2021/11/09 08:04:05;;;;;;;30.92;12.15;;;6.70;99.90;;;;;;5060088;28;20111;-77
2021/11/09 08:06:43;;;;;;;25.95;11.38;;;6.70;99.90;;;;;;5056387;28;21262;-77
2021/11/09 08:11:38;;;;;;;26.80;11.27;;;6.80;99.90;;;;;;5060084;28;20060;-77
2021/11/09 08:14:04;;;;;;;32.72;12.82;;;6.80;99.90;;;;;;5060869;28;20045;-76
2021/11/09 08:16:30;;;;;;;44.47;13.32;;;6.90;99.90;;;;;;5091063;28;20055;-76
2021/11/09 08:18:56;;;;;;;36.80;12.98;;;6.90;99.90;;;;;;5092902;28;20036;-76
2021/11/09 08:21:22;;;;;;;31.00;13.57;;;7.00;99.90;;;;;;5074763;28;20159;-76
2021/11/09 08:23:49;;;;;;;27.83;12.02;;;7.00;99.90;;;;;;5060192;28;20585;-76
2021/11/09 08:26:20;;;;;;;33.35;13.60;;;7.00;99.90;;;;;;5057703;28;20059;-76
2021/11/09 08:28:46;;;;;;;27.13;11.45;;;7.10;99.90;;;;;;5057546;28;20062;-77
2021/11/09 08:31:15;;;;;;;30.65;12.48;;;7.10;99.90;;;;;;5070333;28;20094;-76
2021/11/09 08:33:41;;;;;;;31.05;12.32;;;7.20;99.90;;;;;;5058058;28;20052;-77
2021/11/09 08:36:10;;;;;;;26.98;12.35;;;7.20;99.90;;;;;;5058275;28;20048;-76
2021/11/09 08:38:38;;;;;;;32.90;11.80;;;7.30;99.90;;;;;;5060867;28;20039;-76
2021/11/09 08:41:05;;;;;;;31.45;12.40;;;7.40;99.90;;;;;;5073578;28;20045;-76
2021/11/09 08:43:34;;;;;;;24.90;11.88;;;7.40;99.90;;;;;;5057995;28;20437;-76
2021/11/09 08:46:10;;;;;;;27.27;11.13;;;7.40;99.90;;;;;;5060192;28;20070;-77
2021/11/09 08:48:41;;;;;;;33.65;12.93;;;7.50;99.90;;;;;;5056793;28;20048;-77
2021/11/09 08:51:09;;;;;;;31.23;13.35;;;7.50;99.90;;;;;;5059162;28;20048;-77
2021/11/09 08:53:43;;;;;;;30.48;12.40;;;7.60;99.90;;;;;;5061243;28;20052;-77
2021/11/09 09:01:03;;;;;;;27.88;12.75;;;7.70;99.90;;;;;;5057433;28;20488;-77
2021/11/09 09:06:32;;;;;;;36.15;13.10;;;7.80;99.90;;;;;;5056196;28;20052;-77
2021/11/09 09:09:02;;;;;;;32.53;12.45;;;7.90;99.90;;;;;;5056736;28;20044;-77
2021/11/09 09:11:29;;;;;;;35.20;12.85;;;8.00;99.90;;;;;;5058602;28;20047;-77
2021/11/09 09:13:54;;;;;;;28.20;11.65;;;8.00;99.90;;;;;;5090987;28;21346;-77
2021/11/09 09:16:20;;;;;;;25.30;11.65;;;8.00;99.90;;;;;;5056795;28;20044;-77
2021/11/09 09:18:46;;;;;;;35.17;12.68;;;8.10;99.90;;;;;;5059971;28;20107;-77
2021/11/09 09:21:38;;;;;;;25.75;11.57;;;8.10;99.90;;;;;;5058869;28;20074;-77
2021/11/09 09:24:03;;;;;;;28.40;11.95;;;8.20;99.90;;;;;;5057217;28;20056;-77
2021/11/09 09:31:51;;;;;;;29.17;12.23;;;8.40;99.90;;;;;;5057528;28;20054;-77
2021/11/09 09:56:05;;;;;;;25.75;10.32;;;9.20;99.90;;;;;;5062253;28;20072;-77
2021/11/09 09:58:31;;;;;;;30.20;10.45;;;9.30;99.90;;;;;;5058587;28;20049;-77
2021/11/09 10:00:56;;;;;;;32.28;10.38;;;9.30;99.90;;;;;;5063141;28;20035;-77
2021/11/09 10:03:33;;;;;;;34.05;12.38;;;9.40;99.90;;;;;;5062240;28;20048;-78
2021/11/09 10:06:02;;;;;;;30.33;12.45;;;9.40;99.90;;;;;;5062365;28;20052;-78
2021/11/09 10:08:49;;;;;;;31.45;10.57;;;9.60;99.90;;;;;;5060930;28;20495;-77
2021/11/09 10:11:27;;;;;;;35.75;12.18;;;9.70;99.90;;;;;;5059425;28;20045;-77
2021/11/09 10:13:53;;;;;;;37.92;12.68;;;9.80;99.90;;;;;;5060914;28;20444;-77
2021/11/09 10:16:18;;;;;;;30.67;10.75;;;9.90;99.90;;;;;;5061182;28;20048;-77
2021/11/09 10:18:44;;;;;;;33.13;12.13;;;9.80;99.90;;;;;;5060933;28;20403;-77
2021/11/09 10:21:12;;;;;;;28.17;10.68;;;9.90;99.90;;;;;;5058010;28;20102;-77
2021/11/09 10:23:38;;;;;;;34.67;10.18;;;9.80;99.90;;;;;;5065256;28;20102;-77
2021/11/09 10:26:13;;;;;;;29.27;10.10;;;9.90;99.90;;;;;;5065417;28;20491;-76
2021/11/09 10:28:39;;;;;;;33.60;10.90;;;9.80;99.90;;;;;;5061186;28;20097;-77
2021/11/09 10:31:08;;;;;;;33.85;10.48;;;9.90;99.90;;;;;;5063351;28;20485;-76
2021/11/09 10:33:38;;;;;;;30.58;10.35;;;9.90;99.90;;;;;;5062139;28;20045;-77
2021/11/09 10:36:15;;;;;;;27.02;9.75;;;9.90;99.90;;;;;;5065195;28;20044;-77
2021/11/09 10:38:42;;;;;;;34.30;10.07;;;9.90;99.90;;;;;;5060334;28;20040;-77
2021/11/09 10:41:07;;;;;;;29.85;10.35;;;9.90;99.90;;;;;;5063670;28;20454;-76
2021/11/09 10:43:33;;;;;;;29.80;10.65;;;9.90;99.90;;;;;;5059066;28;20119;-77
2021/11/09 10:46:00;;;;;;;29.35;9.63;;;10.00;99.90;;;;;;5060830;28;20202;-76
2021/11/09 10:48:27;;;;;;;34.40;10.77;;;10.00;99.90;;;;;;5060108;28;20045;-77
2021/11/09 10:50:58;;;;;;;29.63;10.25;;;10.10;99.90;;;;;;5058689;28;20051;-76
2021/11/09 10:56:02;;;;;;;29.90;9.68;;;10.10;99.90;;;;;;5059232;28;20045;-77
2021/11/09 10:58:52;;;;;;;23.02;8.05;;;10.10;99.90;;;;;;5058646;28;21052;-77
2021/11/09 11:06:10;;;;;;;34.15;9.57;;;10.20;99.90;;;;;;5059910;28;20047;-77
2021/11/09 11:08:37;;;;;;;28.25;8.25;;;10.20;99.90;;;;;;5058192;28;20036;-77
2021/11/09 11:11:19;;;;;;;28.77;8.40;;;10.20;99.90;;;;;;5063882;28;20127;-77
2021/11/09 11:13:44;;;;;;;22.85;7.20;;;10.20;99.90;;;;;;5057368;28;20040;-77
2021/11/09 11:16:13;;;;;;;28.13;7.85;;;10.30;99.90;;;;;;5058202;28;20391;-77
2021/11/09 11:18:57;;;;;;;21.70;8.20;;;10.30;99.90;;;;;;5060360;28;20388;-77
2021/11/09 11:21:25;;;;;;;26.27;6.65;;;10.30;99.90;;;;;;5059110;28;20470;-77
2021/11/09 11:23:52;;;;;;;18.92;7.45;;;10.40;99.90;;;;;;5059786;28;20082;-77
2021/11/09 11:26:19;;;;;;;20.20;7.70;;;10.40;99.90;;;;;;5059997;28;20040;-77
2021/11/09 11:28:47;;;;;;;22.77;7.93;;;10.40;99.90;;;;;;5060471;28;20041;-77
2021/11/09 11:31:14;;;;;;;27.45;7.65;;;10.40;99.90;;;;;;5059060;28;20118;-77
2021/11/09 11:33:41;;;;;;;22.23;8.13;;;10.40;99.90;;;;;;5059821;28;20052;-77
2021/11/09 11:36:07;;;;;;;22.55;6.97;;;10.50;99.90;;;;;;5059430;28;20036;-77
2021/11/09 11:38:36;;;;;;;18.80;7.35;;;10.50;99.90;;;;;;5058666;28;20037;-77
2021/11/09 11:41:12;;;;;;;19.20;7.30;;;10.50;99.90;;;;;;5060403;28;20666;-77
2021/11/09 11:43:46;;;;;;;24.90;7.97;;;10.50;99.90;;;;;;5046016;28;20319;-76
2021/11/09 11:46:13;;;;;;;26.00;8.90;;;10.40;99.90;;;;;;5056092;28;20414;-77
2021/11/09 11:49:00;;;;;;;29.50;8.63;;;10.50;99.90;;;;;;5059098;28;20055;-77
2021/11/09 11:51:28;;;;;;;27.25;8.63;;;10.40;99.90;;;;;;5060290;28;20128;-77
2021/11/09 11:53:54;;;;;;;23.33;7.55;;;10.50;99.90;;;;;;5060817;28;20028;-77
2021/11/09 11:56:21;;;;;;;21.35;8.07;;;10.50;99.90;;;;;;5058911;28;20466;-77
2021/11/09 11:58:47;;;;;;;23.27;8.00;;;10.60;99.90;;;;;;5059304;28;20127;-77
2021/11/09 12:01:34;;;;;;;27.27;9.57;;;10.60;99.90;;;;;;5058637;28;20582;-77
2021/11/09 12:03:59;;;;;;;28.13;9.30;;;10.60;99.90;;;;;;5056206;28;20478;-77
2021/11/09 12:06:27;;;;;;;25.90;9.73;;;10.60;99.90;;;;;;5055288;28;20050;-77
2021/11/09 12:08:54;;;;;;;27.73;8.25;;;10.60;99.90;;;;;;5059821;28;20041;-77
2021/11/09 12:11:23;;;;;;;27.10;9.00;;;10.60;99.90;;;;;;5074361;28;20063;-77
2021/11/09 12:14:20;;;;;;;23.50;8.00;;;10.70;99.90;;;;;;5061503;28;20498;-77
2021/11/09 12:17:28;;;;;;;21.77;7.43;;;10.70;99.90;;;;;;5087172;28;20087;-77
2021/11/09 12:19:54;;;;;;;24.20;8.02;;;10.80;99.90;;;;;;5059554;28;20070;-77
2021/11/09 12:22:36;;;;;;;29.58;9.20;;;10.80;99.90;;;;;;5057734;28;20500;-76
2021/11/09 12:25:04;;;;;;;24.48;7.75;;;10.80;99.90;;;;;;5058685;28;20120;-76
2021/11/09 12:27:48;;;;;;;25.10;7.95;;;10.80;99.90;;;;;;5055756;28;20041;-76
2021/11/09 12:30:38;;;;;;;23.17;7.68;;;10.80;99.90;;;;;;5059167;28;20072;-76
2021/11/09 12:33:18;;;;;;;24.60;8.20;;;10.80;99.90;;;;;;5089889;28;20052;-76
2021/11/09 12:35:45;;;;;;;21.35;7.22;;;10.80;99.90;;;;;;5061401;28;20406;-77
2021/11/09 12:38:29;;;;;;;27.67;9.20;;;10.80;99.90;;;;;;5058538;28;20067;-76
2021/11/09 12:40:57;;;;;;;22.00;7.95;;;10.80;99.90;;;;;;5058398;28;20048;-77
2021/11/09 12:43:32;;;;;;;24.55;8.05;;;10.80;99.90;;;;;;5071454;28;20068;-76
2021/11/09 12:46:23;;;;;;;23.23;9.73;;;10.90;99.90;;;;;;5057563;28;20055;-76
2021/11/09 12:49:02;;;;;;;27.17;8.90;;;10.90;99.90;;;;;;5056482;28;20061;-76
2021/11/09 12:51:28;;;;;;;28.20;9.90;;;10.90;99.90;;;;;;5057390;28;20045;-76
2021/11/09 12:53:58;;;;;;;20.65;7.35;;;10.90;99.90;;;;;;5057025;28;20052;-77
2021/11/09 12:56:32;;;;;;;23.95;7.70;;;11.00;99.90;;;;;;5057372;28;20072;-77
2021/11/09 12:59:03;;;;;;;24.63;7.15;;;11.00;99.90;;;;;;5054420;28;20052;-77
2021/11/09 13:01:37;;;;;;;29.40;8.77;;;11.00;99.90;;;;;;5055785;28;20051;-77
2021/11/09 13:04:56;;;;;;;25.40;8.05;;;11.00;99.90;;;;;;5054813;28;20051;-77
2021/11/09 13:09:45;;;;;;;27.92;9.25;;;11.00;99.90;;;;;;5056725;28;19982;-78
2021/11/09 13:12:15;;;;;;;23.70;8.00;;;11.00;99.90;;;;;;5056762;28;20099;-77
2021/11/09 13:14:41;;;;;;;24.08;7.93;;;11.00;99.90;;;;;;5057260;28;20048;-77
2021/11/09 13:17:35;;;;;;;20.45;7.47;;;11.00;99.90;;;;;;5038765;28;20045;-77
2021/11/09 13:20:05;;;;;;;26.13;9.38;;;11.00;99.90;;;;;;5055826;28;20067;-77
2021/11/09 13:22:32;;;;;;;28.73;8.88;;;10.90;99.90;;;;;;5055470;28;20044;-77
2021/11/09 13:25:06;;;;;;;23.55;8.27;;;11.00;99.90;;;;;;5054752;28;20033;-76
2021/11/09 13:27:36;;;;;;;19.52;7.85;;;11.00;99.90;;;;;;5052830;28;20517;-76
2021/11/09 13:30:33;;;;;;;28.90;10.80;;;11.00;99.90;;;;;;5056829;28;20064;-77
2021/11/09 13:32:59;;;;;;;;;;;11.00;99.90;;;;;;5036882;28;20053;-76
2021/11/09 13:35:45;;;;;;;24.05;8.65;;;11.00;99.90;;;;;;5044790;28;19931;-77
2021/11/09 13:38:20;;;;;;;25.27;8.50;;;11.00;99.90;;;;;;5086444;28;20139;-77
2021/11/09 13:40:47;;;;;;;25.23;8.93;;;11.00;99.90;;;;;;5090022;28;20143;-75
2021/11/09 13:43:16;;;;;;;26.75;9.00;;;11.00;99.90;;;;;;5056501;28;20037;-76
2021/11/09 13:45:42;;;;;;;22.77;8.50;;;11.00;99.90;;;;;;5053198;28;20084;-77
2021/11/09 13:48:17;;;;;;;26.00;8.43;;;11.00;99.90;;;;;;5054531;28;20049;-77
2021/11/09 13:50:44;;;;;;;28.20;10.00;;;11.00;99.90;;;;;;5056813;28;20040;-77
2021/11/09 13:53:11;;;;;;;23.95;9.77;;;11.00;99.90;;;;;;5056024;28;20128;-77
2021/11/09 13:55:40;;;;;;;27.95;8.88;;;11.00;99.90;;;;;;5062898;28;20041;-77
2021/11/09 13:58:08;;;;;;;20.90;8.18;;;11.00;99.90;;;;;;5054999;28;20054;-77
2021/11/09 14:00:43;;;;;;;23.95;7.97;;;11.10;99.90;;;;;;5091309;28;20074;-77
2021/11/09 14:03:21;;;;;;;23.58;8.07;;;11.00;99.90;;;;;;5058358;28;20067;-77
2021/11/09 14:16:37;;;;;;;25.05;9.70;;;10.90;99.90;;;;;;5054243;28;20135;-77
2021/11/09 14:19:09;;;;;;;22.92;8.23;;;10.90;99.90;;;;;;5089095;28;20036;-77
2021/11/09 14:21:45;;;;;;;29.52;9.27;;;10.90;99.90;;;;;;5055435;28;20098;-77
2021/11/09 14:24:15;;;;;;;30.23;9.20;;;11.00;99.90;;;;;;5058192;28;20037;-77
2021/11/09 14:26:42;;;;;;;24.33;8.13;;;10.90;99.90;;;;;;5054802;28;20050;-77
2021/11/09 14:29:21;;;;;;;23.25;7.88;;;10.90;99.90;;;;;;5056176;28;20561;-77
2021/11/09 14:32:00;;;;;;;26.35;9.23;;;10.90;99.90;;;;;;5056167;28;20066;-77
2021/11/09 14:34:27;;;;;;;29.15;10.10;;;10.90;99.90;;;;;;5057320;28;20060;-77
2021/11/09 14:37:05;;;;;;;24.63;8.68;;;10.90;99.90;;;;;;5060788;28;20486;-77
2021/11/09 14:39:31;;;;;;;30.13;10.27;;;10.90;99.90;;;;;;5042792;28;20069;-77
2021/11/09 14:44:49;;;;;;;31.50;9.27;;;10.90;99.90;;;;;;5060762;28;20127;-77
2021/11/09 14:47:18;;;;;;;32.53;9.02;;;10.80;99.90;;;;;;5060565;28;20783;-77
2021/11/09 14:49:55;;;;;;;34.75;10.35;;;10.80;99.90;;;;;;5063409;28;20099;-77
2021/11/09 14:52:25;;;;;;;26.85;8.48;;;10.80;99.90;;;;;;5059374;28;20062;-77
2021/11/09 14:54:55;;;;;;;27.60;9.05;;;10.80;99.90;;;;;;5078440;28;20485;-77
2021/11/09 14:57:32;;;;;;;28.85;8.85;;;10.80;99.90;;;;;;5060461;28;20063;-77
2021/11/09 15:00:08;;;;;;;26.45;7.68;;;10.80;99.90;;;;;;5059125;28;20113;-77
2021/11/09 15:02:34;;;;;;;26.27;8.25;;;10.80;99.90;;;;;;5046721;28;20068;-77
2021/11/09 15:05:00;;;;;;;28.15;9.50;;;10.80;99.90;;;;;;5060266;28;20183;-77
2021/11/09 15:07:35;;;;;;;24.70;8.00;;;10.80;99.90;;;;;;5060119;28;20153;-77
2021/11/09 15:12:46;;;;;;;19.30;7.22;;;10.70;99.90;;;;;;5059074;28;19927;-77